Time;durP1;ratioP1;P1;durP2;ratioP2;P2;SDS_P1;SDS_P2;PMS_P1;PMS_P2;Temp;Humidity;BMP_temperature;BMP_pressure;BME280_temperature;BME280_humidity;BME280_pressure;Samples;Min_cycle;Max_cycle;Signal;HPM_P1;HPM_P2
2022/04/07 00:01:41;;;;;;;3.63;2.67;;;11.10;99.90;;;;;;5012656;28;20599;-72
2022/04/07 00:04:27;;;;;;;9.23;2.87;;;11.10;99.90;;;;;;5012167;28;20469;-72
2022/04/07 00:07:13;;;;;;;4.37;3.10;;;11.10;99.90;;;;;;5003323;28;20450;-72
2022/04/07 00:09:58;;;;;;;4.87;2.90;;;11.10;99.90;;;;;;5015104;28;20549;-72
2022/04/07 00:12:44;;;;;;;5.70;3.20;;;11.10;99.90;;;;;;5011863;28;20994;-72
2022/04/07 00:15:32;;;;;;;4.37;2.40;;;11.10;99.90;;;;;;5016489;28;20492;-72
2022/04/07 00:18:17;;;;;;;2.70;2.37;;;11.10;99.90;;;;;;5011644;28;20446;-72
2022/04/07 00:21:06;;;;;;;10.20;3.53;;;11.10;99.90;;;;;;5013034;28;20634;-72
2022/04/07 00:23:52;;;;;;;4.33;2.33;;;11.00;99.90;;;;;;5012016;28;20966;-72
2022/04/07 00:26:38;;;;;;;6.70;3.17;;;11.00;99.90;;;;;;5008811;28;20566;-72
2022/04/07 00:29:24;;;;;;;4.43;2.97;;;11.10;99.90;;;;;;5013920;28;20434;-72
2022/04/07 00:32:11;;;;;;;4.73;3.03;;;11.00;99.90;;;;;;5008839;28;20497;-72
2022/04/07 00:34:57;;;;;;;5.17;3.20;;;11.00;99.90;;;;;;5004265;28;20557;-72
2022/04/07 00:37:42;;;;;;;4.87;3.13;;;11.10;99.90;;;;;;5009038;28;20453;-72
2022/04/07 00:40:28;;;;;;;4.20;3.50;;;11.00;99.90;;;;;;5011039;28;20426;-72
2022/04/07 00:43:29;;;;;;;6.33;3.47;;;11.00;99.90;;;;;;5011487;28;20442;-72
2022/04/07 00:46:14;;;;;;;5.33;3.30;;;10.80;99.90;;;;;;5001274;28;21045;-72
2022/04/07 00:49:01;;;;;;;4.90;3.23;;;10.80;99.90;;;;;;5007092;28;20426;-72
2022/04/07 00:51:49;;;;;;;4.67;3.13;;;10.80;99.90;;;;;;5015209;28;20544;-72
2022/04/07 00:54:35;;;;;;;4.60;3.47;;;10.90;99.90;;;;;;5009969;28;20963;-72
2022/04/07 00:57:20;;;;;;;5.80;2.87;;;10.90;99.90;;;;;;5008092;28;20468;-72
2022/04/07 01:00:08;;;;;;;4.87;3.13;;;10.80;99.90;;;;;;5008328;28;20441;-72
2022/04/07 01:02:53;;;;;;;4.60;3.20;;;10.80;99.90;;;;;;5010843;28;20611;-72
2022/04/07 01:05:40;;;;;;;3.77;3.30;;;10.90;99.90;;;;;;5006398;28;20490;-72
2022/04/07 01:08:26;;;;;;;5.20;3.50;;;10.80;99.90;;;;;;5013113;28;20455;-72
2022/04/07 01:11:12;;;;;;;5.73;3.30;;;10.70;99.90;;;;;;5011693;28;20421;-72
2022/04/07 01:13:57;;;;;;;5.67;3.17;;;10.70;99.90;;;;;;5012725;28;20824;-72
2022/04/07 01:16:43;;;;;;;3.23;2.60;;;10.60;99.90;;;;;;5006809;28;20530;-72
2022/04/07 01:19:28;;;;;;;3.70;2.60;;;10.70;99.90;;;;;;5010044;28;20570;-72
2022/04/07 01:22:16;;;;;;;3.90;2.77;;;10.70;99.90;;;;;;5013969;28;20609;-72
2022/04/07 01:25:03;;;;;;;4.50;2.93;;;10.70;99.90;;;;;;5005501;28;20420;-72
2022/04/07 01:27:49;;;;;;;5.37;2.70;;;10.70;99.90;;;;;;5008110;28;20489;-72
2022/04/07 01:30:35;;;;;;;4.50;3.00;;;10.80;99.90;;;;;;5007182;28;20451;-72
2022/04/07 01:33:22;;;;;;;3.50;2.30;;;10.80;99.90;;;;;;5014416;28;20456;-72
2022/04/07 01:36:08;;;;;;;5.40;2.57;;;10.80;99.90;;;;;;5003314;28;20416;-72
2022/04/07 01:38:55;;;;;;;3.30;2.37;;;10.80;99.90;;;;;;5016126;28;21029;-72
2022/04/07 01:41:44;;;;;;;3.70;2.00;;;10.70;99.90;;;;;;5017406;28;20495;-72
2022/04/07 01:44:31;;;;;;;3.00;2.40;;;10.60;99.90;;;;;;5013412;28;20465;-72
2022/04/07 01:47:20;;;;;;;5.10;2.70;;;10.60;99.90;;;;;;5015315;28;20470;-72
2022/04/07 01:50:09;;;;;;;4.27;2.30;;;10.70;99.90;;;;;;5017544;28;20938;-72
2022/04/07 01:52:55;;;;;;;4.90;2.50;;;10.80;99.90;;;;;;5008787;28;20445;-72
2022/04/07 01:55:42;;;;;;;2.93;2.50;;;10.70;99.90;;;;;;5011424;28;20476;-72
2022/04/07 01:58:29;;;;;;;3.47;2.60;;;10.70;99.90;;;;;;5011840;28;20449;-72
2022/04/07 02:01:16;;;;;;;5.80;2.30;;;10.80;99.90;;;;;;5016302;28;20572;-72
2022/04/07 02:04:01;;;;;;;5.20;2.60;;;10.80;99.90;;;;;;5023911;28;20470;-72
2022/04/07 02:06:47;;;;;;;2.83;2.20;;;10.80;99.90;;;;;;5010249;28;21007;-72
2022/04/07 02:09:33;;;;;;;2.90;2.07;;;10.80;99.90;;;;;;5019474;28;20433;-72
2022/04/07 02:12:20;;;;;;;3.10;2.10;;;10.80;99.90;;;;;;5011079;28;20452;-72
2022/04/07 02:15:08;;;;;;;3.03;2.17;;;10.80;99.90;;;;;;5008581;28;21018;-71
2022/04/07 02:17:54;;;;;;;5.00;2.60;;;10.80;99.90;;;;;;5008413;28;20530;-72
2022/04/07 02:20:40;;;;;;;2.93;2.33;;;10.80;99.90;;;;;;5012407;28;20471;-71
2022/04/07 02:23:27;;;;;;;4.40;2.63;;;10.70;99.90;;;;;;5016997;28;20440;-72
2022/04/07 02:26:13;;;;;;;4.67;2.10;;;10.70;99.90;;;;;;5014805;28;20467;-72
2022/04/07 02:28:58;;;;;;;3.67;1.90;;;10.80;99.90;;;;;;5013315;28;20504;-72
2022/04/07 02:31:46;;;;;;;4.30;2.30;;;10.80;99.90;;;;;;5014324;28;20431;-72
2022/04/07 02:34:32;;;;;;;2.93;2.00;;;10.80;99.90;;;;;;5007996;28;20454;-72
2022/04/07 02:37:17;;;;;;;3.50;2.43;;;10.70;99.90;;;;;;5016676;28;20940;-72
2022/04/07 02:40:04;;;;;;;3.87;2.37;;;10.70;99.90;;;;;;5015978;28;20552;-71
2022/04/07 02:42:50;;;;;;;2.90;1.53;;;10.70;99.90;;;;;;5013651;28;20443;-72
2022/04/07 02:45:35;;;;;;;2.50;2.13;;;10.70;99.90;;;;;;5011234;28;20954;-72
2022/04/07 02:48:22;;;;;;;2.27;1.83;;;10.70;99.90;;;;;;5017230;28;21019;-72
2022/04/07 02:51:08;;;;;;;2.53;1.70;;;10.60;99.90;;;;;;5017147;28;20416;-72
2022/04/07 02:53:57;;;;;;;4.00;2.00;;;10.60;99.90;;;;;;5008254;28;20463;-72
2022/04/07 02:56:43;;;;;;;4.27;1.60;;;10.60;99.90;;;;;;5010652;28;20564;-72
2022/04/07 02:59:29;;;;;;;4.30;1.87;;;10.60;99.90;;;;;;5014676;28;20449;-72
2022/04/07 03:02:15;;;;;;;2.63;1.47;;;10.60;99.90;;;;;;5012681;28;20524;-72
2022/04/07 03:05:02;;;;;;;4.00;1.87;;;10.70;99.90;;;;;;5007474;28;20870;-72
2022/04/07 03:07:48;;;;;;;2.30;1.60;;;10.60;99.90;;;;;;5016318;28;20436;-72
2022/04/07 03:10:33;;;;;;;2.27;1.60;;;10.60;99.90;;;;;;5017340;28;20435;-72
2022/04/07 03:13:19;;;;;;;2.60;1.70;;;10.60;99.90;;;;;;5011365;28;20445;-72
2022/04/07 03:16:05;;;;;;;4.60;2.03;;;10.50;99.90;;;;;;5010667;28;21073;-72
2022/04/07 03:18:51;;;;;;;2.73;1.67;;;10.50;99.90;;;;;;5016017;28;20442;-72
2022/04/07 03:21:38;;;;;;;2.90;1.77;;;10.50;99.90;;;;;;5012767;28;20466;-72
2022/04/07 03:24:24;;;;;;;2.70;1.70;;;10.50;99.90;;;;;;5006249;28;20862;-72
2022/04/07 03:27:10;;;;;;;2.40;1.73;;;10.60;99.90;;;;;;5013851;28;20457;-72
2022/04/07 03:29:56;;;;;;;2.60;1.50;;;10.50;99.90;;;;;;5013489;28;20421;-72
2022/04/07 03:32:41;;;;;;;2.27;1.60;;;10.50;99.90;;;;;;5015383;28;20413;-72
2022/04/07 03:35:27;;;;;;;2.27;1.47;;;10.50;99.90;;;;;;5013490;28;20488;-72
2022/04/07 03:38:15;;;;;;;2.00;1.30;;;10.50;99.90;;;;;;5008977;28;20449;-72
2022/04/07 03:41:00;;;;;;;2.53;1.53;;;10.60;99.90;;;;;;5011817;28;20936;-72
2022/04/07 03:43:46;;;;;;;2.97;1.90;;;10.50;99.90;;;;;;5010375;28;20952;-72
2022/04/07 03:46:32;;;;;;;2.10;1.30;;;10.50;99.90;;;;;;5013386;28;20420;-72
2022/04/07 03:49:17;;;;;;;2.70;1.63;;;10.40;99.90;;;;;;5013411;28;20897;-72
2022/04/07 03:52:03;;;;;;;4.33;1.63;;;10.40;99.90;;;;;;5006066;28;20507;-72
2022/04/07 03:54:50;;;;;;;1.80;1.27;;;10.40;99.90;;;;;;5003559;28;20467;-72
2022/04/07 03:57:36;;;;;;;4.23;1.40;;;10.50;99.90;;;;;;5011865;28;21003;-72
2022/04/07 04:00:22;;;;;;;2.37;1.53;;;10.50;99.90;;;;;;5009415;28;20959;-72
2022/04/07 04:03:07;;;;;;;2.80;1.80;;;10.50;99.90;;;;;;5007355;28;20481;-72
2022/04/07 04:05:53;;;;;;;2.23;1.47;;;10.50;99.90;;;;;;5007840;28;20420;-72
2022/04/07 04:08:38;;;;;;;2.50;1.80;;;10.60;99.90;;;;;;5013204;28;20455;-71
2022/04/07 04:11:26;;;;;;;5.23;1.37;;;10.60;99.90;;;;;;5011438;28;20471;-72
2022/04/07 04:14:12;;;;;;;3.47;1.67;;;10.60;99.90;;;;;;5002185;28;20449;-72
2022/04/07 04:16:57;;;;;;;4.57;1.80;;;10.60;99.90;;;;;;5013271;28;20640;-72
2022/04/07 04:19:43;;;;;;;2.70;1.50;;;10.50;99.90;;;;;;5009743;28;22377;-72
2022/04/07 04:22:29;;;;;;;3.63;1.70;;;10.60;99.90;;;;;;5006352;28;20424;-72
2022/04/07 04:25:14;;;;;;;4.60;1.30;;;10.60;99.90;;;;;;5004901;28;20428;-72
2022/04/07 04:28:01;;;;;;;2.40;1.60;;;10.50;99.90;;;;;;5008998;28;20474;-72
2022/04/07 04:30:47;;;;;;;3.17;1.60;;;10.40;99.90;;;;;;5009870;28;20929;-72
2022/04/07 04:33:33;;;;;;;2.87;1.20;;;10.50;99.90;;;;;;5004185;28;20462;-72
2022/04/07 04:36:18;;;;;;;2.40;1.50;;;10.40;99.90;;;;;;5006917;28;20469;-72
2022/04/07 04:39:04;;;;;;;2.27;1.47;;;10.40;99.90;;;;;;5009399;28;20515;-72
2022/04/07 04:41:50;;;;;;;3.30;1.20;;;10.40;99.90;;;;;;5007800;28;20512;-72
2022/04/07 04:44:37;;;;;;;1.70;1.10;;;10.50;99.90;;;;;;5009297;28;20419;-72
2022/04/07 04:47:22;;;;;;;2.10;1.40;;;10.60;99.90;;;;;;5008303;28;20486;-72
2022/04/07 04:50:12;;;;;;;5.40;1.40;;;10.50;99.90;;;;;;5007049;28;20620;-72
2022/04/07 04:52:58;;;;;;;1.63;1.20;;;10.50;99.90;;;;;;5007683;28;20573;-72
2022/04/07 04:55:44;;;;;;;2.57;1.27;;;10.50;99.90;;;;;;5007739;28;20469;-72
2022/04/07 04:58:29;;;;;;;2.90;1.20;;;10.50;99.90;;;;;;5009997;28;20982;-72
2022/04/07 05:01:17;;;;;;;2.00;1.53;;;10.50;99.90;;;;;;5014688;28;20446;-72
2022/04/07 05:04:03;;;;;;;2.30;1.20;;;10.60;99.90;;;;;;5010027;28;20453;-72
2022/04/07 05:06:48;;;;;;;3.67;1.30;;;10.40;99.90;;;;;;5010520;28;20956;-72
2022/04/07 05:09:34;;;;;;;1.80;1.20;;;10.50;99.90;;;;;;5006774;28;20828;-72
2022/04/07 05:12:20;;;;;;;2.97;1.33;;;10.50;99.90;;;;;;5007420;28;20450;-72
2022/04/07 05:15:07;;;;;;;1.70;1.00;;;10.40;99.90;;;;;;5017360;28;20474;-72
2022/04/07 05:17:55;;;;;;;2.13;1.30;;;10.30;99.90;;;;;;5015607;28;20478;-72
2022/04/07 05:20:40;;;;;;;2.80;1.33;;;10.30;99.90;;;;;;5012984;28;20464;-72
2022/04/07 05:23:26;;;;;;;4.43;1.47;;;10.40;99.90;;;;;;5007526;28;20441;-72
2022/04/07 05:26:12;;;;;;;1.73;1.17;;;10.40;99.90;;;;;;5011601;28;20453;-72
2022/04/07 05:28:58;;;;;;;4.60;1.47;;;10.40;99.90;;;;;;5017841;28;20440;-72
2022/04/07 05:31:44;;;;;;;3.93;1.30;;;10.40;99.90;;;;;;5010980;28;20465;-72
2022/04/07 05:34:32;;;;;;;2.10;1.00;;;10.40;99.90;;;;;;5016796;28;20512;-72
2022/04/07 05:37:18;;;;;;;1.97;1.07;;;10.50;99.90;;;;;;5015171;28;20998;-72
2022/04/07 05:40:05;;;;;;;2.83;1.30;;;10.50;99.90;;;;;;5014811;28;20446;-72
2022/04/07 05:42:51;;;;;;;2.17;1.10;;;10.60;99.90;;;;;;5014616;28;20768;-72
2022/04/07 05:45:39;;;;;;;1.90;1.10;;;10.60;99.90;;;;;;5016377;28;20419;-72
2022/04/07 05:48:25;;;;;;;3.23;1.20;;;10.60;99.90;;;;;;5011404;28;20848;-72
2022/04/07 05:51:13;;;;;;;4.13;1.20;;;10.60;99.90;;;;;;5012328;28;20816;-72
2022/04/07 05:53:59;;;;;;;2.40;1.23;;;10.60;99.90;;;;;;5008637;28;20457;-72
2022/04/07 05:56:45;;;;;;;2.63;1.20;;;10.60;99.90;;;;;;5012843;28;20481;-72
2022/04/07 05:59:30;;;;;;;1.83;1.10;;;10.70;99.90;;;;;;5014524;28;20461;-72
2022/04/07 06:02:16;;;;;;;7.00;1.30;;;10.60;99.90;;;;;;5012322;28;20446;-72
2022/04/07 06:05:02;;;;;;;7.53;1.20;;;10.70;99.90;;;;;;5015207;28;20943;-72
2022/04/07 06:07:49;;;;;;;1.80;1.10;;;10.70;99.90;;;;;;5011648;28;20440;-72
2022/04/07 06:10:36;;;;;;;5.50;2.30;;;10.70;99.90;;;;;;5012248;28;20977;-72
2022/04/07 06:13:21;;;;;;;3.70;1.87;;;10.80;99.90;;;;;;5018341;28;21037;-72
2022/04/07 06:16:06;;;;;;;2.10;1.30;;;10.70;99.90;;;;;;5010799;28;20470;-72
2022/04/07 06:18:52;;;;;;;2.60;1.27;;;10.70;99.90;;;;;;5017020;28;20452;-72
2022/04/07 06:21:38;;;;;;;3.53;1.53;;;10.70;99.90;;;;;;5008520;28;20444;-72
2022/04/07 06:24:25;;;;;;;2.07;1.33;;;10.70;99.90;;;;;;5013707;28;20478;-72
2022/04/07 06:27:11;;;;;;;3.20;1.50;;;10.70;99.90;;;;;;5015077;28;20440;-72
2022/04/07 06:29:56;;;;;;;2.83;1.67;;;10.60;99.90;;;;;;5011207;28;20505;-72
2022/04/07 06:32:44;;;;;;;2.10;1.27;;;10.60;99.90;;;;;;5013838;28;20988;-71
2022/04/07 06:35:30;;;;;;;3.27;1.17;;;10.60;99.90;;;;;;5014752;28;20523;-72
2022/04/07 06:38:15;;;;;;;2.33;1.17;;;10.60;99.90;;;;;;5013931;28;20454;-72
2022/04/07 06:41:03;;;;;;;2.30;1.07;;;10.60;99.90;;;;;;5010683;28;21499;-72
2022/04/07 06:43:49;;;;;;;2.10;1.53;;;10.60;99.90;;;;;;5011568;28;20451;-72
2022/04/07 06:46:34;;;;;;;3.47;1.10;;;10.70;99.90;;;;;;5015575;28;20616;-71
2022/04/07 06:49:20;;;;;;;6.13;1.27;;;10.70;99.90;;;;;;5013999;28;20445;-72
2022/04/07 06:52:05;;;;;;;1.80;1.17;;;10.70;99.90;;;;;;5009440;28;20443;-71
2022/04/07 06:54:51;;;;;;;3.60;1.23;;;10.70;99.90;;;;;;5013482;28;20447;-72
2022/04/07 06:57:53;;;;;;;1.50;1.07;;;10.60;99.90;;;;;;5014078;28;20456;-72
2022/04/07 07:00:43;;;;;;;2.23;1.23;;;10.60;99.90;;;;;;5011161;28;20739;-72
2022/04/07 07:03:29;;;;;;;1.83;1.10;;;10.70;99.90;;;;;;5017511;28;20560;-71
2022/04/07 07:06:14;;;;;;;3.03;1.30;;;10.70;99.90;;;;;;5008594;28;20955;-71
2022/04/07 07:09:00;;;;;;;3.20;1.80;;;10.60;99.90;;;;;;5024818;28;20408;-71
2022/04/07 07:11:45;;;;;;;6.50;2.17;;;10.70;99.90;;;;;;5015877;28;20926;-71
2022/04/07 07:14:32;;;;;;;5.33;2.80;;;10.70;99.90;;;;;;5019997;28;20488;-71
2022/04/07 07:17:18;;;;;;;2.30;1.20;;;10.70;99.90;;;;;;5014668;28;20604;-71
2022/04/07 07:20:05;;;;;;;2.10;1.40;;;10.60;99.90;;;;;;5015772;28;20417;-71
2022/04/07 07:22:51;;;;;;;3.60;1.13;;;10.60;99.90;;;;;;5013021;28;20780;-71
2022/04/07 07:25:37;;;;;;;2.00;1.20;;;10.60;99.90;;;;;;5014103;28;20846;-71
2022/04/07 07:28:23;;;;;;;2.90;1.40;;;10.70;99.90;;;;;;5020493;28;20415;-71
2022/04/07 07:31:10;;;;;;;1.53;1.03;;;10.70;99.90;;;;;;5013129;28;20458;-71
2022/04/07 07:33:56;;;;;;;2.97;1.20;;;10.60;99.90;;;;;;5014575;28;20786;-71
2022/04/07 07:36:41;;;;;;;4.37;2.10;;;10.50;99.90;;;;;;5010896;28;20584;-71
2022/04/07 07:39:28;;;;;;;1.93;1.20;;;10.50;99.90;;;;;;5015376;28;20460;-71
2022/04/07 07:42:13;;;;;;;3.20;1.60;;;10.50;99.90;;;;;;5011516;28;20460;-71
2022/04/07 07:44:59;;;;;;;3.10;1.20;;;10.50;99.90;;;;;;5012467;28;20462;-71
2022/04/07 07:47:46;;;;;;;1.60;1.03;;;10.50;99.90;;;;;;5014537;28;21041;-71
2022/04/07 07:50:31;;;;;;;3.83;1.30;;;10.50;99.90;;;;;;5015477;28;20455;-71
2022/04/07 07:53:17;;;;;;;2.50;1.10;;;10.40;99.90;;;;;;5013272;28;20492;-72
2022/04/07 07:56:03;;;;;;;2.80;1.13;;;10.50;99.90;;;;;;5006157;28;20486;-71
2022/04/07 07:58:49;;;;;;;2.13;1.17;;;10.40;99.90;;;;;;5011649;28;20423;-71
2022/04/07 08:01:34;;;;;;;3.73;1.40;;;10.50;99.90;;;;;;5024625;28;20500;-71
2022/04/07 08:04:21;;;;;;;2.23;1.17;;;10.40;99.90;;;;;;5017053;28;20422;-73
2022/04/07 08:07:07;;;;;;;1.50;0.90;;;10.40;99.90;;;;;;5010912;28;20923;-73
2022/04/07 08:09:56;;;;;;;3.63;1.00;;;10.40;99.90;;;;;;5007955;28;21029;-71
2022/04/07 08:12:42;;;;;;;1.73;1.17;;;10.40;99.90;;;;;;5014776;28;20638;-71
2022/04/07 08:15:28;;;;;;;1.60;1.00;;;10.40;99.90;;;;;;5011730;28;20552;-71
2022/04/07 08:18:14;;;;;;;1.60;1.00;;;10.50;99.90;;;;;;5013986;28;20468;-71
2022/04/07 08:21:01;;;;;;;1.53;1.00;;;10.50;99.90;;;;;;5010014;28;20440;-71
2022/04/07 08:23:47;;;;;;;2.37;1.27;;;10.50;99.90;;;;;;5010965;28;20939;-71
2022/04/07 08:26:33;;;;;;;2.10;1.00;;;10.60;99.90;;;;;;5012009;28;20485;-71
2022/04/07 08:29:19;;;;;;;6.50;1.10;;;10.60;99.90;;;;;;5008716;28;20454;-71
2022/04/07 08:32:05;;;;;;;1.90;0.73;;;10.60;99.90;;;;;;5018991;28;20421;-71
2022/04/07 08:34:51;;;;;;;4.37;1.20;;;10.60;99.90;;;;;;5012173;28;20817;-71
2022/04/07 08:37:38;;;;;;;2.13;1.07;;;10.70;99.90;;;;;;5014850;28;20609;-71
2022/04/07 08:40:24;;;;;;;3.37;1.07;;;10.60;99.90;;;;;;5002128;28;20447;-71
2022/04/07 08:43:10;;;;;;;12.13;1.20;;;10.70;99.90;;;;;;5009828;28;20982;-71
2022/04/07 08:45:55;;;;;;;1.90;0.90;;;10.70;99.90;;;;;;5009184;28;20550;-71
2022/04/07 08:48:43;;;;;;;1.83;1.00;;;10.70;99.90;;;;;;5002504;28;20560;-71
2022/04/07 08:51:29;;;;;;;1.87;1.07;;;10.70;99.90;;;;;;5007629;28;21973;-71
2022/04/07 08:54:16;;;;;;;4.60;1.00;;;10.70;99.90;;;;;;5014745;28;20439;-71
2022/04/07 08:57:03;;;;;;;1.67;1.07;;;10.80;99.90;;;;;;5006232;28;20478;-71
2022/04/07 08:59:49;;;;;;;6.90;1.00;;;10.80;99.90;;;;;;5002874;28;20474;-71
2022/04/07 09:02:35;;;;;;;1.60;0.83;;;10.90;99.90;;;;;;5011031;28;20443;-71
2022/04/07 09:05:24;;;;;;;7.20;1.20;;;10.90;99.90;;;;;;5010817;28;20424;-71
2022/04/07 09:08:10;;;;;;;1.97;1.20;;;10.90;99.90;;;;;;5011249;28;20597;-71
2022/04/07 09:10:58;;;;;;;1.47;0.90;;;10.90;99.90;;;;;;5006182;28;20437;-71
2022/04/07 09:13:46;;;;;;;2.33;1.10;;;11.00;99.90;;;;;;5008655;28;20450;-72
2022/04/07 09:16:32;;;;;;;2.13;0.90;;;11.00;99.90;;;;;;5011601;28;20458;-71
2022/04/07 09:19:22;;;;;;;3.33;1.20;;;11.00;99.90;;;;;;5005416;28;20441;-71
2022/04/07 09:22:09;;;;;;;2.57;1.00;;;11.00;99.90;;;;;;5012605;28;20521;-71
2022/04/07 09:24:55;;;;;;;2.97;1.03;;;11.10;99.90;;;;;;5005009;28;20407;-71
2022/04/07 09:27:42;;;;;;;2.33;1.10;;;11.10;99.90;;;;;;5014109;28;20478;-71
2022/04/07 09:30:36;;;;;;;2.20;1.23;;;11.10;99.90;;;;;;5009669;28;20438;-71
2022/04/07 09:33:23;;;;;;;3.20;1.30;;;11.10;99.90;;;;;;5012624;28;20447;-71
2022/04/07 09:36:10;;;;;;;1.80;1.13;;;11.10;99.90;;;;;;5006871;28;20493;-71
2022/04/07 09:38:58;;;;;;;6.50;1.33;;;11.20;99.90;;;;;;5007969;28;20468;-71
2022/04/07 09:41:44;;;;;;;1.60;0.90;;;11.20;99.90;;;;;;5001072;28;20463;-71
2022/04/07 09:44:38;;;;;;;4.60;1.03;;;11.20;99.90;;;;;;5004471;28;20922;-71
2022/04/07 09:47:24;;;;;;;3.70;1.07;;;11.20;99.90;;;;;;5005808;28;20536;-70
2022/04/07 09:50:20;;;;;;;2.03;1.20;;;11.30;99.90;;;;;;5003459;28;20431;-70
2022/04/07 09:53:07;;;;;;;4.80;0.80;;;11.30;99.90;;;;;;5013798;28;20431;-71
2022/04/07 09:55:54;;;;;;;1.90;1.00;;;11.30;99.90;;;;;;5002078;28;20438;-71
2022/04/07 09:58:40;;;;;;;4.17;1.30;;;11.30;99.90;;;;;;5006441;28;20851;-71
2022/04/07 10:01:28;;;;;;;2.30;1.20;;;11.30;99.90;;;;;;5013764;28;20454;-71
2022/04/07 10:04:14;;;;;;;2.53;1.40;;;11.40;99.90;;;;;;5014021;28;20444;-71
2022/04/07 10:07:02;;;;;;;2.70;1.27;;;11.40;99.90;;;;;;5008946;28;20463;-71
2022/04/07 10:09:48;;;;;;;3.80;0.90;;;11.40;99.90;;;;;;5012573;28;21152;-71
2022/04/07 10:12:34;;;;;;;3.50;0.97;;;11.40;99.90;;;;;;5008685;28;20454;-71
2022/04/07 10:15:21;;;;;;;2.87;0.90;;;11.40;99.90;;;;;;5010724;28;20942;-71
2022/04/07 10:18:15;;;;;;;1.70;1.00;;;11.40;99.90;;;;;;5008088;28;20477;-71
2022/04/07 10:21:03;;;;;;;4.17;1.30;;;11.40;99.90;;;;;;5012868;28;20958;-71
2022/04/07 10:23:58;;;;;;;3.33;1.30;;;11.30;99.90;;;;;;5008196;28;20832;-71
2022/04/07 10:26:47;;;;;;;3.80;1.10;;;11.30;99.90;;;;;;5000473;28;20584;-71
2022/04/07 10:29:32;;;;;;;1.30;0.80;;;11.30;99.90;;;;;;5007455;28;22400;-71
2022/04/07 10:32:19;;;;;;;6.23;1.50;;;11.30;99.90;;;;;;5007889;28;20458;-71
2022/04/07 10:35:08;;;;;;;7.73;1.20;;;11.40;99.90;;;;;;5008650;28;20481;-71
2022/04/07 10:37:54;;;;;;;2.00;1.10;;;11.40;99.90;;;;;;5006658;28;20875;-71
2022/04/07 10:40:50;;;;;;;1.70;0.97;;;11.40;99.90;;;;;;5008620;28;20533;-71
2022/04/07 10:43:39;;;;;;;1.80;1.03;;;11.40;99.90;;;;;;5004996;28;20465;-71
2022/04/07 10:46:24;;;;;;;2.13;1.10;;;11.40;99.90;;;;;;5004179;28;20462;-71
2022/04/07 10:49:12;;;;;;;1.60;1.00;;;11.50;99.90;;;;;;5007651;28;20789;-71
2022/04/07 10:52:02;;;;;;;2.40;1.03;;;11.50;99.90;;;;;;5016280;28;20422;-71
2022/04/07 10:55:13;;;;;;;3.67;0.90;;;11.50;99.90;;;;;;5012308;28;20427;-72
2022/04/07 10:58:11;;;;;;;1.90;1.00;;;11.50;99.90;;;;;;5004049;28;20535;-73
2022/04/07 11:00:57;;;;;;;1.80;1.20;;;11.60;99.90;;;;;;5016418;28;20824;-73
2022/04/07 11:04:03;;;;;;;1.70;0.97;;;11.60;99.90;;;;;;5015019;28;20477;-73
2022/04/07 11:07:22;;;;;;;1.37;0.80;;;11.60;99.90;;;;;;5009982;28;20472;-73
2022/04/07 11:10:13;;;;;;;1.20;0.60;;;11.60;99.90;;;;;;5005104;28;20947;-74
2022/04/07 11:13:03;;;;;;;2.50;1.00;;;11.70;99.90;;;;;;5001659;28;20461;-74
2022/04/07 11:15:51;;;;;;;1.20;0.70;;;11.70;99.90;;;;;;5006495;28;20434;-74
2022/04/07 11:18:55;;;;;;;2.90;1.10;;;11.70;99.90;;;;;;5006168;28;20448;-74
2022/04/07 11:21:45;;;;;;;1.60;0.87;;;11.70;99.90;;;;;;5011829;28;20431;-74
2022/04/07 11:24:34;;;;;;;2.53;1.03;;;11.70;99.90;;;;;;5006562;28;20475;-75
2022/04/07 11:27:36;;;;;;;2.80;1.10;;;11.70;99.90;;;;;;5002722;28;20580;-75
2022/04/07 11:30:21;;;;;;;4.30;0.83;;;11.70;99.90;;;;;;5012970;28;20423;-75
2022/04/07 11:33:31;;;;;;;1.60;1.10;;;11.70;99.90;;;;;;5007584;28;20450;-77
2022/04/07 11:36:38;;;;;;;1.40;0.63;;;11.80;99.90;;;;;;5014118;28;20428;-76
2022/04/07 11:39:25;;;;;;;1.30;0.83;;;11.80;99.90;;;;;;5016005;28;20416;-75
2022/04/07 11:42:12;;;;;;;6.50;0.80;;;11.80;99.90;;;;;;5005141;28;20455;-75
2022/04/07 11:44:59;;;;;;;1.53;0.90;;;11.80;99.90;;;;;;5004484;28;20606;-75
2022/04/07 11:47:50;;;;;;;1.53;1.07;;;11.90;99.90;;;;;;5001786;28;20449;-76
2022/04/07 11:50:38;;;;;;;1.20;0.60;;;11.90;99.90;;;;;;5010060;28;20491;-75
2022/04/07 11:53:25;;;;;;;1.63;1.00;;;11.90;99.90;;;;;;5007914;28;20945;-72
2022/04/07 11:56:16;;;;;;;3.83;1.10;;;12.00;99.90;;;;;;5008790;28;20419;-74
2022/04/07 11:59:06;;;;;;;1.53;0.93;;;12.00;99.90;;;;;;5010329;28;20437;-74
2022/04/07 12:01:52;;;;;;;1.50;0.70;;;12.10;99.90;;;;;;4997214;28;20447;-75
2022/04/07 12:04:40;;;;;;;2.17;0.90;;;12.20;99.90;;;;;;5010566;28;20394;-74
2022/04/07 12:07:26;;;;;;;2.83;0.80;;;12.20;99.90;;;;;;5014795;28;20427;-74
2022/04/07 12:10:13;;;;;;;1.57;0.90;;;12.30;99.90;;;;;;5016395;28;21068;-74
2022/04/07 12:12:58;;;;;;;2.20;0.77;;;12.40;99.90;;;;;;5010589;28;20426;-74
2022/04/07 12:15:45;;;;;;;1.93;0.83;;;12.50;99.90;;;;;;5010622;28;20554;-74
2022/04/07 12:18:31;;;;;;;1.20;0.50;;;12.50;99.90;;;;;;5013488;28;20454;-74
2022/04/07 12:21:16;;;;;;;1.33;0.60;;;12.60;99.90;;;;;;5011911;28;20453;-74
2022/04/07 12:24:12;;;;;;;1.20;0.60;;;12.60;99.90;;;;;;5012964;28;20466;-74
2022/04/07 12:26:59;;;;;;;2.23;0.70;;;12.70;99.90;;;;;;5014105;28;20586;-74
2022/04/07 12:29:48;;;;;;;1.60;0.70;;;12.70;99.90;;;;;;5009181;28;20996;-74
2022/04/07 12:32:45;;;;;;;1.30;0.60;;;12.80;99.90;;;;;;5011039;28;20469;-75
2022/04/07 12:35:45;;;;;;;3.27;0.70;;;12.90;99.90;;;;;;5011521;28;20449;-75
2022/04/07 12:38:31;;;;;;;1.30;0.60;;;12.90;99.90;;;;;;5015504;28;20453;-75
2022/04/07 12:41:17;;;;;;;2.43;0.80;;;12.90;99.90;;;;;;5007483;28;20503;-75
2022/04/07 12:44:03;;;;;;;1.70;0.70;;;13.00;99.90;;;;;;5009219;28;20453;-75
2022/04/07 12:46:54;;;;;;;1.50;0.77;;;13.00;99.90;;;;;;5009984;28;20443;-75
2022/04/07 12:49:41;;;;;;;6.17;2.80;;;13.10;99.90;;;;;;5005199;28;20439;-74
2022/04/07 12:52:39;;;;;;;3.00;0.60;;;13.20;99.90;;;;;;5014373;28;20461;-75
2022/04/07 12:55:35;;;;;;;2.50;0.70;;;13.10;99.90;;;;;;5012540;28;20964;-75
2022/04/07 12:58:27;;;;;;;2.03;0.80;;;13.20;99.90;;;;;;5011430;28;20454;-75
2022/04/07 13:01:22;;;;;;;1.80;0.60;;;13.20;99.90;;;;;;5005494;28;21040;-76
2022/04/07 13:04:09;;;;;;;1.40;0.60;;;13.20;99.90;;;;;;5012534;28;20422;-76
2022/04/07 13:06:56;;;;;;;2.90;0.80;;;13.20;99.90;;;;;;5015500;28;21082;-75
2022/04/07 13:09:42;;;;;;;2.03;0.90;;;13.30;99.90;;;;;;5015461;28;20569;-76
2022/04/07 13:12:28;;;;;;;1.70;0.80;;;13.20;99.90;;;;;;5010395;28;20452;-74
2022/04/07 13:15:14;;;;;;;1.50;0.60;;;13.30;99.90;;;;;;5010772;28;20482;-74
2022/04/07 13:18:01;;;;;;;1.40;0.80;;;13.30;99.90;;;;;;5004155;28;20491;-74
2022/04/07 13:20:47;;;;;;;2.67;0.77;;;13.30;99.90;;;;;;5006199;28;20468;-74
2022/04/07 13:23:34;;;;;;;3.00;0.70;;;13.30;99.90;;;;;;5017583;28;20410;-74
2022/04/07 13:26:21;;;;;;;1.40;0.70;;;13.40;99.90;;;;;;5008827;28;20794;-75
2022/04/07 13:29:07;;;;;;;1.60;0.60;;;13.40;99.90;;;;;;5016576;28;20403;-75
2022/04/07 13:31:52;;;;;;;1.80;0.87;;;13.40;99.90;;;;;;5013251;28;20430;-75
2022/04/07 13:34:38;;;;;;;1.33;0.60;;;13.40;99.90;;;;;;5020836;28;20769;-74
2022/04/07 13:37:24;;;;;;;2.13;0.83;;;13.40;99.90;;;;;;5016794;28;20814;-75
2022/04/07 13:40:12;;;;;;;1.27;0.60;;;13.30;99.90;;;;;;5014520;28;20479;-74
2022/04/07 13:42:57;;;;;;;3.47;0.63;;;13.30;99.90;;;;;;5014831;28;20397;-75
2022/04/07 13:45:44;;;;;;;1.37;0.60;;;13.20;99.90;;;;;;5017976;28;20431;-74
2022/04/07 13:48:30;;;;;;;2.03;0.90;;;13.20;99.90;;;;;;5020536;28;20912;-75
2022/04/07 13:51:16;;;;;;;1.33;0.70;;;13.20;99.90;;;;;;5013380;28;20828;-74
2022/04/07 13:54:02;;;;;;;2.37;0.87;;;13.30;99.90;;;;;;5024254;28;20423;-75
2022/04/07 13:56:48;;;;;;;1.80;0.60;;;13.30;99.90;;;;;;5022679;28;20440;-74
2022/04/07 13:59:36;;;;;;;4.93;0.80;;;13.30;99.90;;;;;;5020735;28;20402;-75
2022/04/07 14:02:22;;;;;;;1.40;0.60;;;13.30;99.90;;;;;;5015656;28;20782;-74
2022/04/07 14:05:08;;;;;;;3.30;0.70;;;13.20;99.90;;;;;;5010565;28;20861;-75
2022/04/07 14:07:54;;;;;;;6.03;0.73;;;13.20;99.90;;;;;;5015656;28;20444;-75
2022/04/07 14:10:40;;;;;;;1.57;0.67;;;13.20;99.90;;;;;;5006729;28;20507;-72
2022/04/07 14:13:28;;;;;;;1.70;0.57;;;13.10;99.90;;;;;;5014881;28;20414;-73
2022/04/07 14:16:14;;;;;;;1.90;0.60;;;13.00;99.90;;;;;;5012663;28;20534;-73
2022/04/07 14:19:00;;;;;;;2.23;0.90;;;13.00;99.90;;;;;;5017420;28;20463;-73
2022/04/07 14:21:46;;;;;;;1.80;0.60;;;13.00;99.90;;;;;;5009118;28;20450;-75
2022/04/07 14:24:31;;;;;;;1.27;0.53;;;13.00;99.90;;;;;;5010869;28;20448;-74
2022/04/07 14:27:18;;;;;;;3.13;0.70;;;13.00;99.90;;;;;;5020680;28;20962;-76
2022/04/07 14:30:06;;;;;;;1.73;0.70;;;13.00;99.90;;;;;;5009283;28;20785;-74
2022/04/07 14:32:52;;;;;;;3.13;0.70;;;13.00;99.90;;;;;;5018419;28;20398;-76